Time;durP1;ratioP1;P1;durP2;ratioP2;P2;SDS_P1;SDS_P2;PMS_P1;PMS_P2;Temp;Humidity;BMP_temperature;BMP_pressure;BME280_temperature;BME280_humidity;BME280_pressure;Samples;Min_cycle;Max_cycle;Signal;HPM_P1;HPM_P2
2022/01/17 00:00:12;;;;;;;36.45;4.53;;;5.90;99.90;;;;;;5030913;28;20068;-57
2022/01/17 00:02:38;;;;;;;40.88;5.25;;;5.90;99.90;;;;;;5030279;28;20398;-58
2022/01/17 00:05:06;;;;;;;28.90;5.25;;;5.90;99.90;;;;;;5029937;28;20465;-57
2022/01/17 00:07:31;;;;;;;24.30;4.25;;;5.90;99.90;;;;;;5030365;28;20052;-61
2022/01/17 00:09:58;;;;;;;44.25;4.78;;;5.90;99.90;;;;;;5030487;28;20049;-58
2022/01/17 00:12:24;;;;;;;34.55;4.43;;;5.90;99.90;;;;;;5030026;28;20387;-58
2022/01/17 00:14:49;;;;;;;32.53;4.88;;;5.90;99.90;;;;;;5030198;28;20030;-59
2022/01/17 00:19:44;;;;;;;31.30;4.20;;;6.00;99.90;;;;;;5030550;28;20033;-57
2022/01/17 00:22:13;;;;;;;32.40;4.40;;;6.00;99.90;;;;;;5030095;28;20038;-59
2022/01/17 00:24:41;;;;;;;34.38;4.47;;;6.10;99.90;;;;;;5030385;28;20108;-56
2022/01/17 00:27:07;;;;;;;27.50;3.90;;;6.00;99.90;;;;;;5030337;28;20028;-60
2022/01/17 00:29:33;;;;;;;36.03;4.55;;;6.10;99.90;;;;;;5030120;28;20033;-58
2022/01/17 00:31:58;;;;;;;24.85;3.72;;;6.10;99.90;;;;;;5029344;28;20029;-60
2022/01/17 00:34:24;;;;;;;32.95;4.43;;;6.10;99.90;;;;;;5030136;28;20043;-60
2022/01/17 00:36:50;;;;;;;39.45;5.15;;;6.10;99.90;;;;;;5029677;28;20028;-61
2022/01/17 00:39:17;;;;;;;26.52;4.22;;;6.10;99.90;;;;;;5030298;28;20087;-59
2022/01/17 00:41:43;;;;;;;28.52;4.63;;;6.10;99.90;;;;;;5029264;28;20499;-60
2022/01/17 00:44:08;;;;;;;34.50;5.40;;;6.20;99.90;;;;;;5030049;28;20045;-61
2022/01/17 00:46:35;;;;;;;31.67;5.00;;;6.20;99.90;;;;;;5030264;28;20167;-60
2022/01/17 00:49:00;;;;;;;23.10;3.53;;;6.20;99.90;;;;;;5029256;28;20436;-59
2022/01/17 00:51:26;;;;;;;37.92;4.13;;;6.20;99.90;;;;;;5029743;28;20095;-58
2022/01/17 00:53:52;;;;;;;28.73;4.32;;;6.10;99.90;;;;;;5029031;28;20022;-60
2022/01/17 00:56:22;;;;;;;36.47;5.07;;;6.20;99.90;;;;;;5029842;28;20525;-60
2022/01/17 00:58:48;;;;;;;31.55;4.13;;;6.20;99.90;;;;;;5029254;28;20044;-54
2022/01/17 01:01:14;;;;;;;32.05;5.50;;;6.20;99.90;;;;;;5029895;28;20463;-58
2022/01/17 01:03:40;;;;;;;32.47;5.45;;;6.20;99.90;;;;;;5029202;28;20083;-57
2022/01/17 01:06:05;;;;;;;27.50;4.32;;;6.30;99.90;;;;;;5029480;28;20041;-60
2022/01/17 01:08:31;;;;;;;40.20;4.47;;;6.30;99.90;;;;;;5029818;28;20057;-60
2022/01/17 01:10:57;;;;;;;22.95;3.63;;;6.30;99.90;;;;;;5029152;28;20031;-60
2022/01/17 01:13:24;;;;;;;31.95;4.05;;;6.30;99.90;;;;;;5029020;28;20454;-61
2022/01/17 01:19:06;;;;;;;24.85;3.92;;;6.40;99.90;;;;;;5029878;28;20104;-59
2022/01/17 01:29:29;;;;;;;30.40;4.30;;;6.40;99.90;;;;;;5029745;28;20032;-61
2022/01/17 01:32:03;;;;;;;28.88;4.50;;;6.50;99.90;;;;;;5028595;28;20029;-61
2022/01/17 01:34:43;;;;;;;30.08;3.72;;;6.40;99.90;;;;;;5029445;28;20014;-57
2022/01/17 01:37:08;;;;;;;35.55;4.60;;;6.50;99.90;;;;;;5029155;28;20542;-58
2022/01/17 01:39:35;;;;;;;36.55;4.63;;;6.50;99.90;;;;;;5029368;28;20164;-58
2022/01/17 01:42:03;;;;;;;25.35;4.60;;;6.50;99.90;;;;;;5028428;28;20075;-61
2022/01/17 01:44:29;;;;;;;32.88;4.82;;;6.50;99.90;;;;;;5029414;28;20053;-58
2022/01/17 01:46:57;;;;;;;22.55;4.30;;;6.50;99.90;;;;;;5028820;28;20115;-59
2022/01/17 01:49:23;;;;;;;22.88;4.68;;;6.50;99.90;;;;;;5029862;28;20017;-59
2022/01/17 01:51:49;;;;;;;25.08;4.47;;;6.50;99.90;;;;;;5028653;28;20029;-59
2022/01/17 01:54:16;;;;;;;38.58;5.50;;;6.50;99.90;;;;;;5011619;28;20583;-58
2022/01/17 01:56:48;;;;;;;30.52;4.53;;;6.50;99.90;;;;;;5029270;28;20125;-58
2022/01/17 01:59:16;;;;;;;27.85;4.93;;;6.50;99.90;;;;;;5029430;28;20037;-57
2022/01/17 02:01:42;;;;;;;28.02;4.05;;;6.50;99.90;;;;;;5028526;28;20115;-58
2022/01/17 02:04:07;;;;;;;21.52;2.88;;;6.60;99.90;;;;;;5029023;28;20045;-61
2022/01/17 02:06:33;;;;;;;28.17;4.55;;;6.60;99.90;;;;;;5029012;28;20058;-59
2022/01/17 02:09:01;;;;;;;29.30;3.67;;;6.60;99.90;;;;;;5028609;28;20472;-58
2022/01/17 02:11:26;;;;;;;29.48;4.22;;;6.60;99.90;;;;;;5028970;28;20030;-61
2022/01/17 02:13:52;;;;;;;35.65;4.72;;;6.60;99.90;;;;;;5028213;28;20010;-61
2022/01/17 02:16:24;;;;;;;36.28;4.68;;;6.60;99.90;;;;;;5028803;28;20029;-59
2022/01/17 02:18:50;;;;;;;24.60;3.95;;;6.60;99.90;;;;;;5028597;28;20203;-57
2022/01/17 02:23:44;;;;;;;34.30;4.40;;;6.60;99.90;;;;;;5028552;28;20112;-60
2022/01/17 02:26:10;;;;;;;31.35;4.20;;;6.70;99.90;;;;;;5028704;28;20029;-64
2022/01/17 02:28:37;;;;;;;46.38;5.43;;;6.60;99.90;;;;;;5032139;28;20021;-61
2022/01/17 02:31:05;;;;;;;36.53;5.53;;;6.60;99.90;;;;;;5013934;28;20049;-61
2022/01/17 02:33:32;;;;;;;33.53;4.63;;;6.60;99.90;;;;;;5031777;28;20428;-58
2022/01/17 02:35:58;;;;;;;35.58;4.32;;;6.60;99.90;;;;;;5031839;28;20038;-59
2022/01/17 02:38:23;;;;;;;35.60;4.38;;;6.60;99.90;;;;;;5032403;28;20078;-58
2022/01/17 02:40:50;;;;;;;28.10;4.32;;;6.70;99.90;;;;;;5031848;28;20049;-51
2022/01/17 02:43:18;;;;;;;26.92;3.88;;;6.70;99.90;;;;;;5031777;28;20030;-57
2022/01/17 02:48:21;;;;;;;30.60;4.32;;;6.70;99.90;;;;;;5032559;28;20021;-58
2022/01/17 02:50:47;;;;;;;32.08;4.05;;;6.70;99.90;;;;;;5031775;28;20096;-56
2022/01/17 02:53:13;;;;;;;33.10;4.88;;;6.70;99.90;;;;;;5032007;28;20022;-59
2022/01/17 02:55:46;;;;;;;40.50;5.22;;;6.70;99.90;;;;;;5032598;28;20030;-57
2022/01/17 02:58:12;;;;;;;36.47;4.32;;;6.70;99.90;;;;;;5032467;28;20125;-57
2022/01/17 03:00:38;;;;;;;31.75;4.75;;;6.80;99.90;;;;;;5014666;28;20030;-55
2022/01/17 03:03:04;;;;;;;24.77;3.58;;;6.70;99.90;;;;;;5031236;28;20489;-54
2022/01/17 03:05:30;;;;;;;38.17;4.95;;;6.80;99.90;;;;;;5031946;28;20137;-54
2022/01/17 03:07:56;;;;;;;29.05;4.75;;;6.80;99.90;;;;;;5013896;28;20375;-52
2022/01/17 03:10:43;;;;;;;32.97;4.72;;;6.80;99.90;;;;;;5032148;28;20093;-55
2022/01/17 03:13:13;;;;;;;31.85;4.55;;;6.80;99.90;;;;;;5031247;28;20076;-52
2022/01/17 03:15:40;;;;;;;30.88;4.07;;;6.80;99.90;;;;;;5032186;28;20033;-53
2022/01/17 03:18:06;;;;;;;26.23;4.60;;;6.80;99.90;;;;;;5031060;28;20036;-59
2022/01/17 03:20:34;;;;;;;25.52;4.32;;;6.80;99.90;;;;;;5031869;28;20045;-60
2022/01/17 03:23:00;;;;;;;25.15;4.07;;;6.80;99.90;;;;;;5030900;28;20025;-52
2022/01/17 03:25:27;;;;;;;24.88;4.40;;;6.80;99.90;;;;;;5031473;28;20467;-53
2022/01/17 03:27:53;;;;;;;30.33;3.85;;;6.80;99.90;;;;;;5031505;28;20030;-60
2022/01/17 03:30:19;;;;;;;31.55;5.05;;;6.80;99.90;;;;;;5031360;28;20030;-60
2022/01/17 03:32:44;;;;;;;26.92;5.50;;;6.80;99.90;;;;;;5030614;28;20148;-59
2022/01/17 03:35:11;;;;;;;28.35;4.68;;;6.80;99.90;;;;;;5031134;28;20060;-60
2022/01/17 03:37:37;;;;;;;33.13;4.00;;;6.80;99.90;;;;;;5031118;28;20110;-60
2022/01/17 03:40:04;;;;;;;33.10;4.50;;;6.80;99.90;;;;;;5012046;28;20087;-62
2022/01/17 03:42:29;;;;;;;28.65;3.70;;;6.80;99.90;;;;;;5030589;28;20480;-61
2022/01/17 03:44:55;;;;;;;35.97;4.38;;;6.80;99.90;;;;;;5012829;28;20106;-53
2022/01/17 03:47:21;;;;;;;38.85;4.95;;;6.80;99.90;;;;;;5030879;28;20030;-55
2022/01/17 03:49:46;;;;;;;35.03;5.15;;;6.80;99.90;;;;;;5030683;28;20116;-54
2022/01/17 03:52:12;;;;;;;29.10;4.93;;;6.80;99.90;;;;;;5030170;28;20109;-57
2022/01/17 03:54:38;;;;;;;33.80;4.30;;;6.80;99.90;;;;;;5031048;28;20127;-56
2022/01/17 03:57:03;;;;;;;22.55;4.07;;;6.80;99.90;;;;;;5030646;28;20499;-53
2022/01/17 03:59:29;;;;;;;31.88;4.95;;;6.80;99.90;;;;;;5030620;28;20479;-62
2022/01/17 04:01:55;;;;;;;30.42;3.55;;;6.80;99.90;;;;;;5030093;28;20127;-60
2022/01/17 04:04:21;;;;;;;37.70;4.68;;;6.80;99.90;;;;;;5030674;28;20025;-62
2022/01/17 04:06:46;;;;;;;28.63;5.00;;;6.80;99.90;;;;;;5030406;28;20037;-61
2022/01/17 04:09:12;;;;;;;28.17;3.88;;;6.90;99.90;;;;;;5030550;28;20105;-62
2022/01/17 04:11:38;;;;;;;30.30;4.60;;;6.90;99.90;;;;;;5012695;28;20469;-62
2022/01/17 04:14:09;;;;;;;30.40;3.92;;;6.90;99.90;;;;;;5030078;28;20032;-61
2022/01/17 04:16:35;;;;;;;32.88;4.38;;;6.90;99.90;;;;;;5030533;28;20123;-61
2022/01/17 04:19:01;;;;;;;28.95;4.30;;;6.90;99.90;;;;;;5030093;28;20069;-61
2022/01/17 04:21:32;;;;;;;34.47;5.82;;;6.90;99.90;;;;;;5030093;28;20029;-60
2022/01/17 04:23:58;;;;;;;28.70;3.40;;;6.90;99.90;;;;;;5030178;28;20021;-60
2022/01/17 04:26:23;;;;;;;26.30;3.95;;;6.90;99.90;;;;;;5030618;28;20025;-61
2022/01/17 04:28:49;;;;;;;36.35;4.55;;;6.90;99.90;;;;;;5029850;28;20021;-62
2022/01/17 04:31:15;;;;;;;32.47;4.32;;;6.90;99.90;;;;;;5030460;28;20113;-60
2022/01/17 04:33:41;;;;;;;26.42;3.28;;;6.90;99.90;;;;;;5029646;28;20032;-61
2022/01/17 04:36:08;;;;;;;27.90;4.82;;;6.90;99.90;;;;;;5030081;28;20042;-61
2022/01/17 04:38:34;;;;;;;29.45;3.70;;;6.90;99.90;;;;;;5012903;28;20025;-59
2022/01/17 04:41:06;;;;;;;29.02;4.45;;;6.90;99.90;;;;;;5029732;28;20038;-60
2022/01/17 04:46:06;;;;;;;26.83;4.10;;;7.00;99.90;;;;;;5029745;28;20062;-57
2022/01/17 04:48:32;;;;;;;33.05;4.43;;;7.00;99.90;;;;;;5012603;28;20026;-56
2022/01/17 04:51:00;;;;;;;24.08;3.83;;;7.00;99.90;;;;;;5028525;28;20037;-58
2022/01/17 04:53:27;;;;;;;36.10;4.85;;;7.00;99.90;;;;;;5012041;28;20443;-54
2022/01/17 04:55:53;;;;;;;28.70;4.22;;;7.00;99.90;;;;;;5029736;28;20096;-54
2022/01/17 04:58:19;;;;;;;38.03;4.43;;;7.00;99.90;;;;;;5029894;28;20517;-58
2022/01/17 05:00:46;;;;;;;33.95;4.95;;;7.00;99.90;;;;;;5029614;28;20124;-59
2022/01/17 05:03:23;;;;;;;27.75;4.05;;;6.90;99.90;;;;;;5029143;28;20124;-59
2022/01/17 05:05:49;;;;;;;28.40;5.28;;;6.90;99.90;;;;;;5029047;28;20076;-58
2022/01/17 05:08:16;;;;;;;22.98;3.30;;;6.80;99.90;;;;;;5029678;28;20045;-59
2022/01/17 05:10:45;;;;;;;39.58;4.68;;;6.80;99.90;;;;;;5029359;28;20075;-60
2022/01/17 05:13:16;;;;;;;23.90;3.83;;;6.90;99.90;;;;;;5029094;28;20022;-59
2022/01/17 05:15:51;;;;;;;29.05;3.75;;;6.90;99.90;;;;;;5029272;28;20437;-59
2022/01/17 05:20:57;;;;;;;29.50;4.57;;;7.00;99.90;;;;;;5018468;28;20029;-60
2022/01/17 05:23:23;;;;;;;32.42;4.22;;;7.10;99.90;;;;;;5018560;28;20030;-60
2022/01/17 05:25:49;;;;;;;31.67;5.00;;;7.10;99.90;;;;;;5014293;28;20037;-56
2022/01/17 05:28:15;;;;;;;34.90;5.32;;;7.10;99.90;;;;;;5020955;28;20029;-55
2022/01/17 05:30:40;;;;;;;28.55;4.45;;;7.10;99.90;;;;;;5020343;28;20017;-56
2022/01/17 05:33:06;;;;;;;33.03;5.50;;;7.20;99.90;;;;;;5020158;28;20083;-58
2022/01/17 05:35:32;;;;;;;39.45;5.75;;;7.20;99.90;;;;;;5020875;28;20052;-60
2022/01/17 05:37:58;;;;;;;29.17;5.07;;;7.30;99.90;;;;;;4998354;28;20480;-58
2022/01/17 05:40:24;;;;;;;29.23;4.57;;;7.20;99.90;;;;;;5000843;28;20072;-60
2022/01/17 05:42:50;;;;;;;34.30;4.95;;;7.20;99.90;;;;;;5027537;28;20399;-62
2022/01/17 05:45:16;;;;;;;29.92;4.40;;;7.20;99.90;;;;;;4995184;28;20026;-61
2022/01/17 05:47:42;;;;;;;25.80;4.05;;;7.20;99.90;;;;;;5008006;28;20100;-60
2022/01/17 05:50:08;;;;;;;41.67;5.47;;;7.20;99.90;;;;;;5015950;28;20022;-62
2022/01/17 05:52:35;;;;;;;34.85;5.40;;;7.30;99.90;;;;;;4994851;28;20037;-62
2022/01/17 05:55:02;;;;;;;45.28;6.07;;;7.20;99.90;;;;;;5002789;28;20103;-62
2022/01/17 05:57:28;;;;;;;34.15;4.13;;;7.30;99.90;;;;;;5021598;28;20034;-57
2022/01/17 05:59:53;;;;;;;33.13;5.47;;;7.30;99.90;;;;;;5007050;28;20042;-56
2022/01/17 06:02:19;;;;;;;38.13;5.88;;;7.30;99.90;;;;;;5005719;28;20037;-55
2022/01/17 06:04:45;;;;;;;38.75;5.57;;;7.30;99.90;;;;;;5021247;28;20025;-53
2022/01/17 06:07:11;;;;;;;37.47;6.13;;;7.20;99.90;;;;;;5020923;28;20029;-58
2022/01/17 06:09:36;;;;;;;47.75;6.28;;;7.20;99.90;;;;;;5024661;28;20017;-56
2022/01/17 06:12:03;;;;;;;40.28;5.38;;;7.20;99.90;;;;;;5014498;28;20080;-52
2022/01/17 06:14:30;;;;;;;37.67;6.50;;;7.20;99.90;;;;;;5009621;28;20030;-62
2022/01/17 06:16:56;;;;;;;34.90;5.78;;;7.20;99.90;;;;;;4984572;28;20434;-62
2022/01/17 06:19:21;;;;;;;36.88;5.10;;;7.20;99.90;;;;;;5012614;28;20029;-62
2022/01/17 06:21:48;;;;;;;38.53;5.88;;;7.30;99.90;;;;;;5015662;28;20030;-59
2022/01/17 06:24:13;;;;;;;39.90;5.47;;;7.30;99.90;;;;;;5024646;28;20022;-60
2022/01/17 06:26:40;;;;;;;37.22;5.60;;;7.30;99.90;;;;;;5027820;28;20048;-60
2022/01/17 06:29:08;;;;;;;43.08;5.90;;;7.40;99.90;;;;;;5021820;28;20549;-62
2022/01/17 06:31:35;;;;;;;40.20;6.25;;;7.30;99.90;;;;;;5013188;28;20061;-61
2022/01/17 06:34:02;;;;;;;38.45;6.15;;;7.30;99.90;;;;;;5020377;28;20080;-57
2022/01/17 06:36:27;;;;;;;50.00;5.85;;;7.30;99.90;;;;;;5023064;28;20317;-61
2022/01/17 06:38:53;;;;;;;29.80;3.97;;;7.20;99.90;;;;;;5018159;28;20045;-60
2022/01/17 06:41:19;;;;;;;37.55;5.38;;;7.10;99.90;;;;;;5013793;28;20048;-62
2022/01/17 06:43:45;;;;;;;37.42;5.68;;;7.10;99.90;;;;;;5016086;28;20484;-62
2022/01/17 06:46:11;;;;;;;39.92;6.57;;;7.10;99.90;;;;;;5001274;28;20038;-61
2022/01/17 06:48:37;;;;;;;28.42;5.05;;;7.10;99.90;;;;;;5000472;28;20041;-61
2022/01/17 06:51:03;;;;;;;41.30;6.97;;;7.10;99.90;;;;;;5018522;28;20033;-61
2022/01/17 06:53:29;;;;;;;42.80;7.22;;;7.10;99.90;;;;;;4992998;28;20088;-61
2022/01/17 06:55:55;;;;;;;42.35;6.05;;;7.20;99.90;;;;;;5013462;28;20030;-62
2022/01/17 06:58:21;;;;;;;45.33;6.40;;;7.20;99.90;;;;;;5021778;28;20030;-60
2022/01/17 07:00:47;;;;;;;38.72;5.10;;;7.10;99.90;;;;;;5015554;28;20357;-57
2022/01/17 07:03:14;;;;;;;37.60;4.90;;;7.10;99.90;;;;;;5022433;28;20071;-60
2022/01/17 07:05:39;;;;;;;45.45;5.63;;;7.10;99.90;;;;;;5012820;28;20075;-59
2022/01/17 07:08:05;;;;;;;32.65;6.22;;;7.20;99.90;;;;;;5017452;28;20515;-58
2022/01/17 07:10:31;;;;;;;33.92;5.55;;;7.20;99.90;;;;;;5020675;28;20029;-60
2022/01/17 07:12:57;;;;;;;28.98;5.00;;;7.20;99.90;;;;;;5015632;28;20033;-54
2022/01/17 07:15:22;;;;;;;39.40;6.22;;;7.20;99.90;;;;;;5020172;28;20068;-51
2022/01/17 07:17:48;;;;;;;44.85;5.47;;;7.20;99.90;;;;;;5018623;28;20104;-55
2022/01/17 07:20:14;;;;;;;41.38;5.88;;;7.20;99.90;;;;;;5021660;28;20031;-53
2022/01/17 07:22:40;;;;;;;25.65;4.63;;;7.30;99.90;;;;;;5023430;28;20045;-53
2022/01/17 07:25:06;;;;;;;42.35;6.57;;;7.30;99.90;;;;;;5021615;28;20120;-53
2022/01/17 07:27:32;;;;;;;34.60;5.97;;;7.30;99.90;;;;;;5013354;28;20037;-50
2022/01/17 07:29:57;;;;;;;27.90;5.30;;;8.30;99.90;;;;;;5021973;28;20121;-67
2022/01/17 07:32:24;;;;;;;34.22;5.40;;;8.20;99.90;;;;;;5018916;28;20032;-65
2022/01/17 07:34:50;;;;;;;47.97;6.40;;;7.80;99.90;;;;;;5006928;28;20033;-61
2022/01/17 07:37:15;;;;;;;42.35;7.35;;;7.50;99.90;;;;;;5017136;28;20030;-65
2022/01/17 07:39:43;;;;;;;33.45;6.07;;;7.40;99.90;;;;;;5018436;28;20026;-63
2022/01/17 07:42:10;;;;;;;47.03;6.18;;;7.40;99.90;;;;;;5021533;28;20436;-66
2022/01/17 07:44:39;;;;;;;37.40;6.70;;;7.40;99.90;;;;;;5026164;28;20495;-65
2022/01/17 07:47:05;;;;;;;37.10;5.50;;;7.40;99.90;;;;;;5016016;28;20030;-63
2022/01/17 07:49:31;;;;;;;40.33;4.90;;;7.40;99.90;;;;;;5021012;28;20079;-63
2022/01/17 07:52:00;;;;;;;47.35;7.07;;;7.40;99.90;;;;;;5015011;28;20038;-57
2022/01/17 07:54:43;;;;;;;38.75;6.18;;;7.40;99.90;;;;;;5018787;28;20030;-64
2022/01/17 07:57:10;;;;;;;42.78;6.30;;;7.40;99.90;;;;;;5004112;28;20022;-62
2022/01/17 07:59:36;;;;;;;35.67;5.40;;;7.40;99.90;;;;;;5005834;28;20060;-63
2022/01/17 08:02:02;;;;;;;34.80;5.05;;;7.40;99.90;;;;;;5021514;28;20061;-62
2022/01/17 08:04:28;;;;;;;34.00;4.97;;;7.40;99.90;;;;;;5001756;28;20369;-63
2022/01/17 08:06:55;;;;;;;44.45;6.80;;;7.40;99.90;;;;;;4997636;28;20046;-63
2022/01/17 08:09:30;;;;;;;34.70;5.85;;;7.40;99.90;;;;;;5010478;28;20144;-63
2022/01/17 08:11:56;;;;;;;34.72;5.00;;;7.40;99.90;;;;;;5018799;28;20042;-63
2022/01/17 08:14:23;;;;;;;34.88;6.60;;;7.40;99.90;;;;;;5020614;28;20060;-66
2022/01/17 08:16:49;;;;;;;42.95;5.32;;;7.40;99.90;;;;;;4998090;28;20068;-65
2022/01/17 08:19:14;;;;;;;27.13;4.95;;;7.40;99.90;;;;;;5018727;28;20527;-62
2022/01/17 08:21:41;;;;;;;30.60;4.55;;;7.40;99.90;;;;;;5026977;28;20079;-63
2022/01/17 08:24:06;;;;;;;37.72;6.60;;;7.40;99.90;;;;;;5000388;28;20113;-62
2022/01/17 08:26:32;;;;;;;41.55;6.32;;;7.50;99.90;;;;;;5010453;28;20112;-64
2022/01/17 08:28:58;;;;;;;38.50;6.32;;;7.40;99.90;;;;;;5008916;28;20034;-65
2022/01/17 08:31:24;;;;;;;44.97;6.47;;;7.40;99.90;;;;;;5002548;28;20030;-64
2022/01/17 08:33:49;;;;;;;37.33;5.93;;;7.50;99.90;;;;;;4993659;28;20037;-61
2022/01/17 08:36:19;;;;;;;33.47;4.88;;;7.50;99.90;;;;;;5003218;28;20107;-64
2022/01/17 08:38:45;;;;;;;45.70;6.43;;;7.50;99.90;;;;;;5007687;28;20108;-64
2022/01/17 08:41:11;;;;;;;42.90;7.38;;;7.60;99.90;;;;;;5017830;28;20080;-63
2022/01/17 08:43:37;;;;;;;44.15;5.75;;;7.50;99.90;;;;;;5020990;28;20074;-64
2022/01/17 08:46:03;;;;;;;39.63;6.20;;;7.60;99.90;;;;;;5026022;28;20121;-63
2022/01/17 08:48:29;;;;;;;38.67;5.95;;;7.60;99.90;;;;;;5005592;28;20037;-65
2022/01/17 08:50:54;;;;;;;32.08;6.00;;;7.60;99.90;;;;;;5008792;28;20030;-62
2022/01/17 08:53:20;;;;;;;38.78;5.32;;;7.60;99.90;;;;;;5023277;28;20494;-67
2022/01/17 08:55:46;;;;;;;34.58;5.55;;;7.60;99.90;;;;;;5022717;28;20033;-66
2022/01/17 08:58:13;;;;;;;33.95;5.10;;;7.50;99.90;;;;;;5018297;28;20118;-67
2022/01/17 09:00:39;;;;;;;36.63;6.25;;;7.50;99.90;;;;;;5029739;28;20030;-67
2022/01/17 09:03:04;;;;;;;37.03;6.32;;;7.50;99.90;;;;;;5018548;28;20030;-67
2022/01/17 09:05:32;;;;;;;45.47;7.18;;;7.50;99.90;;;;;;5006686;28;20048;-66
2022/01/17 09:07:58;;;;;;;48.78;6.85;;;7.50;99.90;;;;;;5017241;28;20084;-64
2022/01/17 09:10:25;;;;;;;48.05;7.55;;;7.50;99.90;;;;;;4995520;28;20033;-66
2022/01/17 09:12:51;;;;;;;55.55;7.65;;;7.50;99.90;;;;;;5016969;28;20108;-64
2022/01/17 09:15:17;;;;;;;41.50;6.82;;;7.50;99.90;;;;;;5025480;28;20267;-64
2022/01/17 09:17:43;;;;;;;44.38;8.65;;;7.60;99.90;;;;;;5010499;28;20052;-64
2022/01/17 09:20:10;;;;;;;57.42;7.95;;;7.60;99.90;;;;;;5000958;28;20038;-65
2022/01/17 09:22:36;;;;;;;54.90;7.75;;;7.60;99.90;;;;;;5020466;28;20037;-66
2022/01/17 09:25:06;;;;;;;63.33;8.23;;;7.50;99.90;;;;;;4990782;28;20088;-65
2022/01/17 09:27:35;;;;;;;59.25;8.93;;;7.50;99.90;;;;;;5023735;28;20041;-67
2022/01/17 09:30:07;;;;;;;41.40;6.78;;;7.50;99.90;;;;;;5020340;28;20031;-63
2022/01/17 09:32:33;;;;;;;50.70;7.68;;;7.50;99.90;;;;;;5009170;28;20053;-65
2022/01/17 09:34:58;;;;;;;39.33;7.68;;;7.50;99.90;;;;;;4997369;28;20068;-64
2022/01/17 09:37:24;;;;;;;42.85;6.32;;;7.50;99.90;;;;;;5004863;28;20441;-64
2022/01/17 09:39:50;;;;;;;40.22;6.85;;;7.50;99.90;;;;;;5028468;28;20148;-64
2022/01/17 09:42:16;;;;;;;46.50;6.93;;;7.50;99.90;;;;;;5004719;28;20115;-63
2022/01/17 09:44:41;;;;;;;40.25;7.03;;;7.50;99.90;;;;;;5024325;28;20034;-64
2022/01/17 09:47:08;;;;;;;36.00;5.50;;;7.50;99.90;;;;;;5007408;28;20075;-60
2022/01/17 09:49:41;;;;;;;35.03;5.47;;;7.50;99.90;;;;;;5021597;28;20033;-62
2022/01/17 09:55:10;;;;;;;35.40;4.53;;;7.50;99.90;;;;;;5016100;28;20071;-62
2022/01/17 09:57:47;;;;;;;28.27;4.65;;;7.50;99.90;;;;;;5015826;28;20017;-65
2022/01/17 10:00:15;;;;;;;39.15;6.53;;;7.50;99.90;;;;;;5008464;28;20067;-64
2022/01/17 10:02:42;;;;;;;26.08;4.22;;;7.50;99.90;;;;;;5003543;28;20044;-66
2022/01/17 10:05:08;;;;;;;26.95;4.35;;;7.40;99.90;;;;;;5011318;28;20084;-64
2022/01/17 10:08:04;;;;;;;19.27;3.30;;;7.50;99.90;;;;;;5023198;28;20121;-61
2022/01/17 10:10:54;;;;;;;29.40;4.18;;;7.50;99.90;;;;;;5011761;28;20030;-66
2022/01/17 10:13:29;;;;;;;31.50;3.83;;;7.50;99.90;;;;;;5002029;28;20041;-66
2022/01/17 10:16:19;;;;;;;28.75;4.32;;;7.50;99.90;;;;;;5015484;28;20112;-63
2022/01/17 10:19:00;;;;;;;28.30;3.33;;;7.50;99.90;;;;;;4993358;28;20124;-63
2022/01/17 10:21:51;;;;;;;28.85;4.05;;;7.60;99.90;;;;;;5022919;28;20049;-63
2022/01/17 10:24:34;;;;;;;21.65;3.90;;;7.60;99.90;;;;;;5017529;28;20721;-63
2022/01/17 10:27:21;;;;;;;21.33;3.58;;;7.60;99.90;;;;;;5023725;28;20462;-66
2022/01/17 10:35:36;;;;;;;22.20;3.63;;;7.80;99.90;;;;;;4939286;28;20036;-66
2022/01/17 10:38:09;;;;;;;26.48;4.20;;;7.90;99.90;;;;;;4979809;28;20100;-66
2022/01/17 10:40:40;;;;;;;15.43;2.80;;;7.90;99.90;;;;;;5002896;28;20058;-67
2022/01/17 10:43:17;;;;;;;19.75;2.65;;;7.90;99.90;;;;;;5017482;28;20029;-69
2022/01/17 10:45:43;;;;;;;17.90;3.20;;;7.90;99.90;;;;;;4983940;28;20052;-69
2022/01/17 10:48:11;;;;;;;18.20;3.25;;;7.90;99.90;;;;;;5019030;28;20084;-69
2022/01/17 10:50:40;;;;;;;26.35;4.15;;;7.90;99.90;;;;;;5002823;28;20030;-70
2022/01/17 10:53:09;;;;;;;18.48;3.13;;;7.90;99.90;;;;;;5001602;28;20129;-70
2022/01/17 10:55:41;;;;;;;29.00;4.63;;;7.90;99.90;;;;;;5007505;28;20029;-69
2022/01/17 10:58:14;;;;;;;22.75;4.47;;;7.80;99.90;;;;;;5009200;28;20088;-69
2022/01/17 11:00:46;;;;;;;25.88;4.00;;;7.80;99.90;;;;;;5009658;28;20037;-69
2022/01/17 11:03:14;;;;;;;21.43;3.80;;;7.70;99.90;;;;;;5013286;28;20167;-66
2022/01/17 11:05:42;;;;;;;23.05;4.07;;;7.70;99.90;;;;;;5025686;28;20292;-66
2022/01/17 11:08:08;;;;;;;26.65;4.07;;;7.90;99.90;;;;;;5028755;28;20467;-69
2022/01/17 11:10:36;;;;;;;23.17;4.20;;;7.90;99.90;;;;;;5030956;28;20100;-66
2022/01/17 11:13:04;;;;;;;20.27;4.68;;;7.80;99.90;;;;;;5027878;28;20028;-66
2022/01/17 11:15:33;;;;;;;34.80;4.78;;;7.70;99.90;;;;;;5015077;28;20491;-63
2022/01/17 11:18:04;;;;;;;30.98;4.15;;;7.50;99.90;;;;;;5013243;28;20133;-64
2022/01/17 11:20:31;;;;;;;18.17;3.03;;;7.30;99.90;;;;;;4962803;28;20104;-66
2022/01/17 11:22:59;;;;;;;25.65;4.32;;;7.00;99.90;;;;;;5008235;28;20172;-66
2022/01/17 11:25:28;;;;;;;27.27;3.75;;;6.80;99.90;;;;;;4994020;28;20099;-65
2022/01/17 11:27:55;;;;;;;27.92;4.05;;;6.70;99.90;;;;;;5012182;28;20076;-64
2022/01/17 11:30:21;;;;;;;19.00;3.47;;;6.60;99.90;;;;;;4980131;28;20029;-64
2022/01/17 11:32:49;;;;;;;22.98;3.78;;;6.50;99.90;;;;;;5023277;28;20061;-64
2022/01/17 11:35:16;;;;;;;25.58;4.18;;;6.50;99.90;;;;;;5021978;28;20167;-65
2022/01/17 11:37:46;;;;;;;32.58;4.90;;;6.50;99.90;;;;;;5018611;28;20060;-66
2022/01/17 11:40:13;;;;;;;34.50;5.13;;;6.50;99.90;;;;;;5011841;28;20336;-64
2022/01/17 11:42:41;;;;;;;23.92;3.72;;;6.50;99.90;;;;;;5021848;28;20053;-64
2022/01/17 11:45:27;;;;;;;34.38;5.22;;;6.50;99.90;;;;;;4999882;28;20029;-64
2022/01/17 11:47:58;;;;;;;32.58;5.15;;;6.60;99.90;;;;;;5006652;28;20045;-65
2022/01/17 11:50:36;;;;;;;24.15;4.10;;;6.70;99.90;;;;;;5006137;28;20072;-65
2022/01/17 11:53:11;;;;;;;32.78;4.68;;;6.70;99.90;;;;;;4992890;28;20022;-65
2022/01/17 11:55:42;;;;;;;32.58;5.22;;;6.80;99.90;;;;;;5007507;28;20423;-66
2022/01/17 11:58:21;;;;;;;40.80;5.95;;;6.90;99.90;;;;;;5012213;28;20057;-64
2022/01/17 12:00:57;;;;;;;41.17;4.88;;;6.90;99.90;;;;;;5011156;28;20385;-66
2022/01/17 12:03:31;;;;;;;36.38;5.78;;;7.00;99.90;;;;;;5026459;28;20033;-68
2022/01/17 12:06:02;;;;;;;37.95;5.63;;;7.00;99.90;;;;;;5016255;28;20433;-65
2022/01/17 12:08:29;;;;;;;39.78;5.47;;;7.10;99.90;;;;;;5019567;28;20049;-65
2022/01/17 12:11:03;;;;;;;46.40;5.93;;;7.10;99.90;;;;;;5009876;28;20399;-65
2022/01/17 12:13:38;;;;;;;42.15;6.38;;;7.10;99.90;;;;;;5017332;28;20026;-68
2022/01/17 12:16:07;;;;;;;42.92;6.43;;;7.10;99.90;;;;;;5025706;28;20426;-68
2022/01/17 12:18:38;;;;;;;30.75;5.50;;;7.20;99.90;;;;;;5002999;28;20029;-65
2022/01/17 12:21:30;;;;;;;41.67;6.93;;;7.30;99.90;;;;;;5018262;28;20231;-67
2022/01/17 12:24:14;;;;;;;39.83;6.68;;;7.40;99.90;;;;;;5002681;28;20041;-66
2022/01/17 12:26:41;;;;;;;38.65;7.03;;;7.50;99.90;;;;;;4990559;28;20113;-66
2022/01/17 12:29:07;;;;;;;51.28;7.13;;;7.50;99.90;;;;;;5016615;28;20037;-65
2022/01/17 12:31:45;;;;;;;52.47;7.57;;;7.40;99.90;;;;;;5029462;28;20026;-69
2022/01/17 12:34:19;;;;;;;38.20;6.63;;;7.40;99.90;;;;;;5018164;28;20099;-67
2022/01/17 12:36:46;;;;;;;45.05;6.78;;;7.50;99.90;;;;;;5012251;28;20041;-68
2022/01/17 12:39:13;;;;;;;43.17;7.30;;;7.70;99.90;;;;;;5000714;28;20133;-68
2022/01/17 12:41:44;;;;;;;42.75;7.03;;;7.90;99.90;;;;;;5012317;28;20021;-68
2022/01/17 12:44:22;;;;;;;49.78;8.02;;;7.90;99.90;;;;;;5008428;28;20029;-67
2022/01/17 12:46:50;;;;;;;44.45;7.47;;;8.30;99.90;;;;;;5009377;28;20034;-65
2022/01/17 12:49:17;;;;;;;45.72;7.20;;;8.70;99.90;;;;;;5016416;28;20041;-69
2022/01/17 12:51:45;;;;;;;54.90;7.80;;;8.50;99.90;;;;;;5020970;28;20120;-67
2022/01/17 12:54:17;;;;;;;50.00;6.90;;;8.10;99.90;;;;;;5016989;28;20033;-65
2022/01/17 12:56:43;;;;;;;;;;;7.80;99.90;;;;;;5005272;28;20021;-65
2022/01/17 12:59:09;;;;;;;57.42;8.60;;;7.70;99.90;;;;;;5023255;28;19913;-66
2022/01/17 13:01:39;;;;;;;39.88;7.20;;;7.50;99.90;;;;;;5012039;28;20026;-66
2022/01/17 13:04:09;;;;;;;53.72;7.25;;;7.40;99.90;;;;;;5020596;28;20026;-66
2022/01/17 13:06:34;;;;;;;55.25;7.03;;;7.30;99.90;;;;;;5010004;28;20075;-66
2022/01/17 13:09:07;;;;;;;46.75;7.03;;;7.30;99.90;;;;;;5017075;28;20029;-64
2022/01/17 13:11:39;;;;;;;46.50;8.00;;;7.20;99.90;;;;;;5011302;28;20303;-68
2022/01/17 13:14:04;;;;;;;60.33;7.82;;;7.20;99.90;;;;;;4990798;28;20026;-65
2022/01/17 13:16:34;;;;;;;61.38;9.30;;;7.10;99.90;;;;;;5019475;28;20041;-66
2022/01/17 13:18:59;;;;;;;45.83;6.82;;;7.10;99.90;;;;;;5013079;28;20054;-66
2022/01/17 13:21:26;;;;;;;48.58;7.90;;;7.10;99.90;;;;;;5019999;28;20054;-66
2022/01/17 13:24:14;;;;;;;46.20;7.20;;;7.00;99.90;;;;;;5022983;28;20021;-68